createdAt,value
2018-12-27T00:02:13.581Z,2.60
2018-12-27T00:04:53.283Z,2.70
2018-12-27T00:07:33.186Z,2.70
2018-12-27T00:10:13.293Z,2.70
2018-12-27T00:12:53.162Z,2.50
2018-12-27T00:15:33.286Z,2.50
2018-12-27T00:18:13.613Z,2.50
2018-12-27T00:20:53.727Z,2.40
2018-12-27T00:23:34.104Z,2.30
2018-12-27T00:26:14.383Z,2.30
2018-12-27T00:28:54.619Z,2.40
2018-12-27T00:31:34.366Z,2.50
2018-12-27T00:34:14.954Z,2.50
2018-12-27T00:36:55.024Z,2.30
2018-12-27T00:39:35.105Z,2.00
2018-12-27T00:42:15.417Z,2.10
2018-12-27T00:44:55.490Z,2.10
2018-12-27T00:47:35.806Z,2.00
2018-12-27T00:50:15.753Z,2.10
2018-12-27T00:52:55.298Z,2.10
2018-12-27T00:55:35.342Z,2.20
2018-12-27T00:58:15.216Z,2.20
2018-12-27T01:00:55.126Z,2.30
2018-12-27T01:03:35.458Z,2.20
2018-12-27T01:06:15.230Z,2.20
2018-12-27T01:08:55.751Z,2.30
2018-12-27T01:11:35.667Z,2.30
2018-12-27T01:14:16.086Z,2.20
2018-12-27T01:16:56.094Z,2.10
2018-12-27T01:19:36.004Z,2.20
2018-12-27T01:22:16.186Z,2.10
2018-12-27T01:24:56.511Z,2.00
2018-12-27T01:27:36.620Z,2.30
2018-12-27T01:30:16.803Z,2.20
2018-12-27T01:32:56.690Z,2.00
2018-12-27T01:35:36.774Z,2.10
2018-12-27T01:38:16.530Z,1.90
2018-12-27T01:40:56.742Z,2.00
2018-12-27T01:43:24.152Z,2.10
2018-12-27T01:46:10.853Z,2.00
2018-12-27T01:48:57.898Z,2.10
2018-12-27T01:51:44.993Z,2.30
2018-12-27T01:54:32.004Z,2.30
2018-12-27T01:57:19.039Z,2.40
2018-12-27T01:59:59.419Z,2.30
2018-12-27T02:02:39.511Z,2.20
2018-12-27T02:05:19.874Z,2.20
2018-12-27T02:07:59.410Z,2.20
2018-12-27T02:10:39.994Z,2.20
2018-12-27T02:13:19.684Z,2.10
2018-12-27T02:15:59.641Z,2.20
2018-12-27T02:18:40.146Z,2.10
2018-12-27T02:21:20.139Z,2.20
2018-12-27T02:24:00.151Z,1.80
2018-12-27T02:26:40.029Z,1.90
2018-12-27T02:29:19.614Z,2.10
2018-12-27T02:31:59.982Z,2.00
2018-12-27T02:34:39.915Z,2.10
2018-12-27T02:37:20.398Z,2.20
2018-12-27T02:40:00.221Z,2.10
2018-12-27T02:42:39.895Z,2.10
2018-12-27T02:45:20.242Z,2.20
2018-12-27T02:48:00.723Z,1.80
2018-12-27T02:50:40.741Z,1.80
2018-12-27T02:53:20.654Z,1.80
2018-12-27T02:56:01.011Z,1.70
2018-12-27T02:58:40.927Z,1.80
2018-12-27T03:01:21.027Z,1.60
2018-12-27T03:04:01.299Z,1.70
2018-12-27T03:06:41.429Z,1.60
2018-12-27T03:09:21.424Z,1.70
2018-12-27T03:12:00.953Z,1.70
2018-12-27T03:14:40.406Z,1.90
2018-12-27T03:17:20.478Z,2.00
2018-12-27T03:20:00.755Z,2.00
2018-12-27T03:22:41.148Z,1.90
2018-12-27T03:25:20.989Z,1.90
2018-12-27T03:28:01.410Z,1.90
2018-12-27T03:30:40.888Z,2.00
2018-12-27T03:33:21.178Z,2.00
2018-12-27T03:36:00.685Z,2.00
2018-12-27T03:38:40.186Z,1.80
2018-12-27T03:41:20.673Z,1.80
2018-12-27T03:44:00.557Z,1.70
2018-12-27T03:46:40.270Z,1.60
2018-12-27T03:49:20.959Z,1.60
2018-12-27T03:52:00.732Z,1.70
2018-12-27T03:54:40.792Z,2.00
2018-12-27T03:57:20.843Z,2.00
2018-12-27T04:00:00.771Z,2.00
2018-12-27T04:02:40.746Z,2.00
2018-12-27T04:05:21.026Z,1.90
2018-12-27T04:08:01.069Z,2.00
2018-12-27T04:10:40.895Z,2.00
2018-12-27T04:13:20.804Z,2.10
2018-12-27T04:16:01.301Z,2.10
2018-12-27T04:18:41.170Z,2.20
2018-12-27T04:21:21.246Z,2.20
2018-12-27T04:24:01.064Z,2.30
2018-12-27T04:26:41.046Z,2.20
2018-12-27T04:29:21.103Z,2.40
2018-12-27T04:32:01.342Z,2.20
2018-12-27T04:34:41.749Z,2.20
2018-12-27T04:37:21.917Z,2.30
2018-12-27T04:40:02.013Z,2.30
2018-12-27T04:42:42.247Z,2.20
2018-12-27T04:45:21.993Z,2.00
2018-12-27T04:48:02.081Z,2.00
2018-12-27T04:50:42.084Z,1.90
2018-12-27T04:53:21.853Z,1.90
2018-12-27T04:56:02.110Z,1.80
2018-12-27T04:58:42.023Z,2.10
2018-12-27T05:01:21.733Z,2.10
2018-12-27T05:04:01.739Z,2.10
2018-12-27T05:06:42.082Z,1.90
2018-12-27T05:09:21.852Z,1.90
2018-12-27T05:12:02.392Z,1.90
2018-12-27T05:14:42.462Z,1.80
2018-12-27T05:17:22.801Z,1.50
2018-12-27T05:20:02.570Z,1.50
2018-12-27T05:22:42.681Z,1.80
2018-12-27T05:25:22.988Z,1.80
2018-12-27T05:28:02.899Z,1.90
2018-12-27T05:30:43.041Z,2.10
2018-12-27T05:33:23.040Z,2.20
2018-12-27T05:36:03.322Z,2.10
2018-12-27T05:38:43.198Z,2.00
2018-12-27T05:41:23.206Z,2.10
2018-12-27T05:44:03.543Z,2.00
2018-12-27T05:46:43.392Z,2.10
2018-12-27T05:49:23.329Z,2.10
2018-12-27T05:52:03.290Z,1.90
2018-12-27T05:54:42.963Z,2.00
2018-12-27T05:57:22.808Z,2.00
2018-12-27T06:00:02.976Z,1.90
2018-12-27T06:02:43.396Z,2.00
2018-12-27T06:05:23.781Z,2.00
2018-12-27T06:08:03.286Z,1.80
2018-12-27T06:10:43.743Z,1.90
2018-12-27T06:13:23.988Z,2.00
2018-12-27T06:16:04.406Z,2.20
2018-12-27T06:18:44.863Z,2.20
2018-12-27T06:21:24.544Z,1.90
2018-12-27T06:24:04.475Z,2.00
2018-12-27T06:26:44.880Z,1.90
2018-12-27T06:29:24.779Z,1.90
2018-12-27T06:32:05.035Z,1.80
2018-12-27T06:34:45.113Z,1.80
2018-12-27T06:37:25.213Z,1.80
2018-12-27T06:40:05.381Z,1.70
2018-12-27T06:42:45.373Z,1.80
2018-12-27T06:45:25.542Z,1.90
2018-12-27T06:48:06.058Z,1.80
2018-12-27T06:50:46.327Z,1.70
2018-12-27T06:53:27.841Z,1.70
2018-12-27T06:56:08.050Z,1.80
2018-12-27T06:58:47.922Z,1.60
2018-12-27T07:01:28.037Z,1.70
2018-12-27T07:04:08.248Z,1.80
2018-12-27T07:06:48.576Z,1.70
2018-12-27T07:09:28.543Z,1.50
2018-12-27T07:12:08.162Z,1.60
2018-12-27T07:14:48.602Z,1.50
2018-12-27T07:17:28.641Z,1.60
2018-12-27T07:20:08.659Z,1.70
2018-12-27T07:22:49.625Z,1.80
2018-12-27T07:25:30.010Z,1.90
2018-12-27T07:28:09.780Z,1.80
2018-12-27T07:30:50.068Z,1.80
2018-12-27T07:33:29.717Z,1.90
2018-12-27T07:36:09.957Z,2.00
2018-12-27T07:38:50.187Z,2.10
2018-12-27T07:41:30.459Z,2.00
2018-12-27T07:44:10.943Z,2.00
2018-12-27T07:46:50.542Z,2.10
2018-12-27T07:49:30.557Z,2.10
2018-12-27T07:52:10.314Z,2.10
2018-12-27T07:54:50.175Z,2.00
2018-12-27T07:57:30.833Z,2.00
2018-12-27T08:00:10.698Z,2.00
2018-12-27T08:02:51.001Z,2.00
2018-12-27T08:05:31.163Z,2.00
2018-12-27T08:08:11.752Z,2.00
2018-12-27T08:10:52.149Z,2.00
2018-12-27T08:13:31.778Z,1.90
2018-12-27T08:16:12.407Z,2.10
2018-12-27T08:18:52.489Z,2.10
2018-12-27T08:21:32.142Z,2.20
2018-12-27T08:24:13.072Z,2.30
2018-12-27T08:26:53.403Z,2.20
2018-12-27T08:29:33.052Z,2.30
2018-12-27T08:32:13.488Z,2.10
2018-12-27T08:34:53.209Z,2.10
2018-12-27T08:37:33.447Z,2.00
2018-12-27T08:40:13.614Z,2.10
2018-12-27T08:42:53.503Z,2.10
2018-12-27T08:45:33.834Z,2.10
2018-12-27T08:48:13.982Z,2.20
2018-12-27T08:50:53.872Z,2.20
2018-12-27T08:53:33.883Z,2.00
2018-12-27T08:56:14.054Z,2.00
2018-12-27T08:58:54.143Z,2.10
2018-12-27T09:01:34.411Z,1.80
2018-12-27T09:04:14.299Z,1.70
2018-12-27T09:06:53.993Z,1.60
2018-12-27T09:09:33.906Z,1.80
2018-12-27T09:12:14.307Z,1.70
2018-12-27T09:14:54.145Z,1.70
2018-12-27T09:17:34.185Z,1.80
2018-12-27T09:20:14.334Z,1.80
2018-12-27T09:22:54.360Z,1.90
2018-12-27T09:25:34.306Z,2.00
2018-12-27T09:28:14.041Z,2.00
2018-12-27T09:30:54.654Z,2.00
2018-12-27T09:33:34.643Z,2.00
2018-12-27T09:36:14.891Z,2.20
2018-12-27T09:38:54.944Z,2.10
2018-12-27T09:41:34.859Z,2.20
2018-12-27T09:44:14.803Z,2.30
2018-12-27T09:46:55.082Z,2.20
2018-12-27T09:49:35.312Z,2.10
2018-12-27T09:52:15.158Z,2.10
2018-12-27T09:54:55.219Z,2.10
2018-12-27T09:57:35.340Z,2.10
2018-12-27T10:00:15.405Z,2.20
2018-12-27T10:02:55.236Z,2.30
2018-12-27T10:05:35.699Z,2.30
2018-12-27T10:08:16.207Z,2.40
2018-12-27T10:10:56.082Z,2.40
2018-12-27T10:13:36.261Z,2.50
2018-12-27T10:16:16.107Z,2.40
2018-12-27T10:18:55.994Z,2.50
2018-12-27T10:21:36.317Z,2.40
2018-12-27T10:24:16.438Z,2.40
2018-12-27T10:26:56.448Z,2.40
2018-12-27T10:29:36.296Z,2.50
2018-12-27T10:32:16.782Z,2.50
2018-12-27T10:34:56.493Z,2.60
2018-12-27T10:40:55.418Z,2.70
2018-12-27T10:43:34.742Z,2.70
2018-12-27T10:46:15.118Z,2.70
2018-12-27T10:48:55.066Z,2.70
2018-12-27T10:51:34.822Z,2.70
2018-12-27T10:54:14.973Z,2.80
2018-12-27T10:56:55.069Z,2.80
2018-12-27T10:59:38.005Z,2.90
2018-12-27T11:02:18.074Z,2.80
2018-12-27T11:04:57.880Z,2.90
2018-12-27T11:07:38.195Z,2.80
2018-12-27T11:10:18.261Z,2.80
2018-12-27T11:12:58.246Z,3.00
2018-12-27T11:15:37.892Z,2.80
2018-12-27T11:18:18.194Z,3.00
2018-12-27T11:20:58.165Z,3.00
2018-12-27T11:23:38.518Z,3.00
2018-12-27T11:26:18.534Z,3.00
2018-12-27T11:28:58.499Z,3.10
2018-12-27T11:31:37.758Z,3.10
2018-12-27T11:34:18.011Z,3.20
2018-12-27T11:36:58.274Z,3.10
2018-12-27T11:39:38.361Z,3.00
2018-12-27T11:42:18.834Z,3.00
2018-12-27T11:44:58.649Z,3.10
2018-12-27T11:47:38.896Z,3.00
2018-12-27T11:50:19.167Z,3.00
2018-12-27T11:52:58.845Z,3.00
2018-12-27T11:55:39.023Z,3.10
2018-12-27T11:58:18.898Z,3.20
2018-12-27T12:00:59.043Z,3.20
2018-12-27T12:03:39.266Z,3.10
2018-12-27T12:06:19.291Z,3.30
2018-12-27T12:08:59.754Z,3.30
2018-12-27T12:11:39.332Z,3.30
2018-12-27T12:14:19.694Z,3.30
2018-12-27T12:16:59.565Z,3.40
2018-12-27T12:19:39.531Z,3.40
2018-12-27T12:22:19.517Z,3.40
2018-12-27T12:24:59.687Z,3.80
2018-12-27T12:27:39.631Z,3.80
2018-12-27T12:30:19.803Z,3.90
2018-12-27T12:32:59.847Z,3.90
2018-12-27T12:35:39.826Z,4.00
2018-12-27T12:38:19.916Z,3.80
2018-12-27T12:40:59.979Z,3.90
2018-12-27T12:43:40.249Z,4.00
2018-12-27T12:46:20.279Z,4.20
2018-12-27T12:49:00.698Z,4.20
2018-12-27T12:51:40.735Z,4.20
2018-12-27T12:54:20.759Z,4.30
2018-12-27T12:57:00.743Z,4.20
2018-12-27T12:59:41.022Z,4.30
2018-12-27T13:02:20.982Z,4.30
2018-12-27T13:05:00.866Z,4.20
2018-12-27T13:07:40.779Z,4.00
2018-12-27T13:10:20.443Z,3.90
2018-12-27T13:13:00.490Z,4.10
2018-12-27T13:15:40.762Z,3.90
2018-12-27T13:18:20.918Z,3.90
2018-12-27T13:21:00.990Z,3.90
2018-12-27T13:23:40.923Z,3.90
2018-12-27T13:26:20.586Z,4.20
2018-12-27T13:29:00.807Z,4.10
2018-12-27T13:31:40.825Z,3.90
2018-12-27T13:34:20.608Z,3.90
2018-12-27T13:37:01.157Z,3.90
2018-12-27T13:39:41.491Z,3.90
2018-12-27T13:42:21.562Z,4.00
2018-12-27T13:45:01.571Z,4.10
2018-12-27T13:47:41.918Z,4.20
2018-12-27T13:50:22.262Z,4.30
2018-12-27T13:53:02.150Z,4.30
2018-12-27T13:55:42.482Z,4.50
2018-12-27T13:58:22.672Z,4.30
2018-12-27T14:01:02.729Z,4.40
2018-12-27T14:03:42.806Z,4.30
2018-12-27T14:06:23.362Z,4.30
2018-12-27T14:09:04.250Z,4.30
2018-12-27T14:11:44.143Z,4.20
2018-12-27T14:14:24.091Z,4.40
2018-12-27T14:17:04.366Z,4.40
2018-12-27T14:19:44.640Z,4.40
2018-12-27T14:22:25.523Z,4.50
2018-12-27T14:25:05.074Z,4.50
2018-12-27T14:30:53.988Z,4.30
2018-12-27T14:33:33.807Z,4.40
2018-12-27T14:36:14.339Z,4.50
2018-12-27T14:38:54.326Z,4.30
2018-12-27T14:41:34.080Z,4.40
2018-12-27T14:44:14.488Z,4.30
2018-12-27T14:46:54.364Z,4.30
2018-12-27T14:49:34.385Z,4.20
2018-12-27T14:52:14.908Z,4.20
2018-12-27T14:54:54.803Z,4.10
2018-12-27T14:57:34.846Z,4.20
2018-12-27T15:00:15.341Z,4.00
2018-12-27T15:02:55.514Z,4.10
2018-12-27T15:05:35.458Z,4.10
2018-12-27T15:11:23.826Z,4.10
2018-12-27T15:14:04.110Z,4.30
2018-12-27T15:16:45.006Z,4.00
2018-12-27T15:19:25.563Z,3.90
2018-12-27T15:22:05.371Z,3.90
2018-12-27T15:24:32.866Z,3.90
2018-12-27T15:27:19.891Z,3.90
2018-12-27T15:30:07.077Z,3.90
2018-12-27T15:32:54.404Z,3.80
2018-12-27T15:35:40.871Z,3.80
2018-12-27T15:38:28.126Z,3.80
2018-12-27T15:41:14.852Z,3.80
2018-12-27T15:44:01.548Z,3.70
2018-12-27T15:46:48.864Z,3.70
2018-12-27T15:49:35.887Z,3.60
2018-12-27T15:52:22.638Z,3.60
2018-12-27T15:55:09.751Z,3.50
2018-12-27T15:57:57.043Z,3.40
2018-12-27T16:00:39.014Z,3.60
2018-12-27T16:03:18.878Z,3.60
2018-12-27T16:05:58.568Z,3.50
2018-12-27T16:08:38.594Z,3.40
2018-12-27T16:11:18.789Z,3.30
2018-12-27T16:13:59.308Z,3.30
2018-12-27T16:16:39.593Z,3.30
2018-12-27T16:19:19.538Z,3.50
2018-12-27T16:22:00.045Z,3.30
2018-12-27T16:24:40.233Z,3.40
2018-12-27T16:27:20.195Z,3.20
2018-12-27T16:30:00.578Z,3.20
2018-12-27T16:32:40.794Z,3.30
2018-12-27T16:35:21.010Z,3.40
2018-12-27T16:41:06.180Z,3.80
2018-12-27T16:43:46.234Z,3.50
2018-12-27T16:46:26.141Z,3.70
2018-12-27T16:52:14.903Z,3.80
2018-12-27T16:54:54.802Z,3.90
2018-12-27T16:57:34.678Z,3.80
2018-12-27T17:00:14.975Z,3.80
2018-12-27T17:02:54.748Z,3.70
2018-12-27T17:05:35.483Z,3.70
2018-12-27T17:08:15.151Z,3.70
2018-12-27T17:10:55.479Z,3.60
2018-12-27T17:13:36.032Z,3.60
2018-12-27T17:16:15.937Z,3.50
2018-12-27T17:22:01.633Z,3.60
2018-12-27T17:24:41.803Z,3.50
2018-12-27T17:27:24.019Z,3.60
2018-12-27T17:30:03.812Z,3.60
2018-12-27T17:32:44.529Z,3.60
2018-12-27T17:35:24.481Z,3.60
2018-12-27T17:38:04.882Z,3.40
2018-12-27T17:40:32.334Z,3.60
2018-12-27T17:42:59.685Z,3.50
2018-12-27T17:45:47.010Z,3.40
2018-12-27T17:48:14.978Z,3.50
2018-12-27T17:51:02.530Z,3.50
2018-12-27T17:53:49.608Z,3.50
2018-12-27T17:56:36.987Z,3.40
2018-12-27T17:59:24.188Z,3.30
2018-12-27T18:02:04.823Z,3.40
2018-12-27T18:04:44.950Z,3.50
2018-12-27T18:07:30.510Z,3.30
2018-12-27T18:10:06.806Z,3.70
2018-12-27T18:16:06.103Z,3.50
2018-12-27T18:18:46.410Z,3.30
2018-12-27T18:24:19.339Z,3.10
2018-12-27T18:26:47.409Z,3.00
2018-12-27T18:29:34.135Z,2.90
2018-12-27T18:32:21.434Z,3.10
2018-12-27T18:37:57.631Z,3.00
2018-12-27T18:41:02.931Z,3.00
2018-12-27T18:43:50.084Z,3.20
2018-12-27T18:46:37.189Z,2.90
2018-12-27T18:49:24.002Z,2.90
2018-12-27T18:52:10.858Z,3.00
2018-12-27T18:54:58.290Z,3.10
2018-12-27T18:57:45.585Z,3.20
2018-12-27T19:00:25.954Z,3.00
2018-12-27T19:02:53.781Z,2.80
2018-12-27T19:05:40.229Z,2.90
2018-12-27T19:08:26.793Z,3.00
2018-12-27T19:11:33.196Z,3.20
2018-12-27T19:14:20.506Z,3.00
2018-12-27T19:16:48.225Z,3.00
2018-12-27T19:19:35.215Z,2.90
2018-12-27T19:22:28.232Z,2.70
2018-12-27T19:25:15.646Z,2.80
2018-12-27T19:28:02.462Z,3.00
2018-12-27T19:30:49.245Z,3.10
2018-12-27T19:33:36.137Z,3.10
2018-12-27T19:36:03.552Z,3.00
2018-12-27T19:38:50.936Z,3.10
2018-12-27T19:41:37.888Z,3.10
2018-12-27T19:44:27.520Z,2.90
2018-12-27T19:47:14.198Z,2.80
2018-12-27T19:50:01.586Z,2.90
2018-12-27T19:52:48.530Z,2.80
2018-12-27T19:55:35.345Z,2.80
2018-12-27T19:58:03.400Z,2.80
2018-12-27T20:00:43.689Z,2.80
2018-12-27T20:03:24.070Z,2.80
2018-12-27T20:06:07.299Z,2.80
2018-12-27T20:08:47.247Z,2.90
2018-12-27T20:11:27.527Z,2.90
2018-12-27T20:14:07.711Z,2.70
2018-12-27T20:16:34.542Z,2.70
2018-12-27T20:19:02.399Z,2.80
2018-12-27T20:21:30.534Z,2.70
2018-12-27T20:23:58.986Z,2.50
2018-12-27T20:26:26.114Z,2.60
2018-12-27T20:29:13.349Z,2.60
2018-12-27T20:32:00.082Z,2.70
2018-12-27T20:34:47.210Z,2.40
2018-12-27T20:37:34.039Z,2.60
2018-12-27T20:40:21.189Z,2.50
2018-12-27T20:43:08.452Z,2.60
2018-12-27T20:45:55.651Z,2.70
2018-12-27T20:48:24.160Z,2.60
2018-12-27T20:51:12.088Z,2.40
2018-12-27T20:53:58.598Z,2.50
2018-12-27T20:56:45.627Z,2.50
2018-12-27T20:59:33.003Z,2.40
2018-12-27T21:02:13.270Z,2.30
2018-12-27T21:04:53.655Z,2.30
2018-12-27T21:07:33.776Z,2.30
2018-12-27T21:10:13.508Z,2.20
2018-12-27T21:12:53.891Z,2.30
2018-12-27T21:15:33.745Z,2.20
2018-12-27T21:18:13.891Z,2.20
2018-12-27T21:20:54.238Z,2.40
2018-12-27T21:23:34.391Z,2.30
2018-12-27T21:26:14.381Z,2.30
2018-12-27T21:28:54.560Z,2.30
2018-12-27T21:31:34.870Z,2.40
2018-12-27T21:34:15.184Z,2.20
2018-12-27T21:36:55.178Z,2.30
2018-12-27T21:39:35.494Z,2.40
2018-12-27T21:42:15.330Z,2.10
2018-12-27T21:44:55.819Z,1.90
2018-12-27T21:47:36.026Z,1.90
2018-12-27T21:50:16.208Z,2.10
2018-12-27T21:52:56.071Z,2.20
2018-12-27T21:55:36.298Z,2.10
2018-12-27T21:58:16.574Z,2.10
2018-12-27T22:00:56.264Z,2.00
2018-12-27T22:03:36.997Z,2.00
2018-12-27T22:06:17.486Z,2.10
2018-12-27T22:08:57.929Z,2.20
2018-12-27T22:11:38.137Z,2.10
2018-12-27T22:14:17.860Z,2.00
2018-12-27T22:16:58.199Z,2.00
2018-12-27T22:19:38.074Z,2.00
2018-12-27T22:22:18.043Z,2.00
2018-12-27T22:24:57.567Z,2.00
2018-12-27T22:27:37.998Z,2.00
2018-12-27T22:30:17.935Z,2.00
2018-12-27T22:35:44.717Z,2.20
2018-12-27T22:38:35.572Z,2.20
2018-12-27T22:41:20.385Z,2.10
2018-12-27T22:44:07.701Z,2.20
2018-12-27T22:46:54.968Z,2.20
2018-12-27T22:49:41.749Z,2.00
2018-12-27T22:52:29.046Z,2.10
2018-12-27T22:55:16.023Z,2.10
2018-12-27T22:58:03.154Z,2.20
2018-12-27T23:00:43.090Z,2.10
2018-12-27T23:03:23.152Z,1.80
2018-12-27T23:06:03.482Z,2.10
2018-12-27T23:11:52.699Z,2.10
2018-12-27T23:14:32.906Z,2.20
2018-12-27T23:17:12.901Z,2.10
2018-12-27T23:19:53.342Z,2.10
2018-12-27T23:22:33.405Z,2.10
2018-12-27T23:25:13.193Z,2.30
2018-12-27T23:27:53.125Z,2.30
2018-12-27T23:30:33.471Z,2.20
2018-12-27T23:33:13.355Z,2.20
2018-12-27T23:35:41.246Z,2.30
2018-12-27T23:38:28.453Z,2.20
2018-12-27T23:41:15.722Z,2.20
2018-12-27T23:44:10.206Z,2.10
2018-12-27T23:46:57.185Z,2.20
2018-12-27T23:49:44.446Z,2.10
2018-12-27T23:52:31.145Z,2.10
2018-12-27T23:55:18.390Z,2.00
2018-12-27T23:58:05.753Z,2.00
